Time;durP1;ratioP1;P1;durP2;ratioP2;P2;SDS_P1;SDS_P2;PMS_P1;PMS_P2;Temp;Humidity;BMP_temperature;BMP_pressure;BME280_temperature;BME280_humidity;BME280_pressure;Samples;Min_cycle;Max_cycle;Signal;HPM_P1;HPM_P2
2022/03/06 00:00:23;;;;;;;22.40;9.13;;;;;;;-3.67;79.01;95569.47;4986648;28;20062;-75
2022/03/06 00:03:09;;;;;;;21.05;9.00;;;;;;;-3.60;78.25;95573.91;4979553;28;20055;-75
2022/03/06 00:05:35;;;;;;;20.92;9.45;;;;;;;-3.59;78.49;95570.34;4988150;28;20099;-74
2022/03/06 00:08:02;;;;;;;21.65;9.57;;;;;;;-3.71;79.28;95577.72;4991908;28;20042;-75
2022/03/06 00:10:28;;;;;;;22.13;9.68;;;;;;;-3.84;79.90;95578.34;4986729;28;20046;-75
2022/03/06 00:12:54;;;;;;;20.08;9.68;;;;;;;-3.95;81.07;95571.06;4989040;28;20046;-75
2022/03/06 00:15:23;;;;;;;22.83;10.10;;;;;;;-3.93;81.39;95574.28;4991499;28;20034;-75
2022/03/06 00:17:49;;;;;;;23.45;9.95;;;;;;;-3.91;81.26;95572.31;4991527;28;20040;-75
2022/03/06 00:20:15;;;;;;;24.52;9.98;;;;;;;-4.01;82.10;95573.38;4991663;28;20389;-75
2022/03/06 00:22:41;;;;;;;25.23;10.35;;;;;;;-3.94;81.63;95570.09;4977311;28;20122;-76
2022/03/06 00:25:08;;;;;;;27.33;10.65;;;;;;;-3.98;82.12;95576.56;4986115;28;20047;-76
2022/03/06 00:27:33;;;;;;;24.15;10.75;;;;;;;-4.05;82.90;95577.28;4990100;28;20053;-76
2022/03/06 00:29:59;;;;;;;24.50;10.35;;;;;;;-4.08;82.55;95577.63;4991261;28;20074;-76
2022/03/06 00:32:25;;;;;;;19.52;9.68;;;;;;;-4.06;82.57;95570.53;4987949;28;20042;-76
2022/03/06 00:34:51;;;;;;;25.40;10.88;;;;;;;-4.00;82.44;95580.09;4982953;28;20045;-76
2022/03/06 00:37:16;;;;;;;23.45;9.85;;;;;;;-3.91;82.20;95572.31;4987388;28;20046;-76
2022/03/06 00:39:43;;;;;;;25.02;9.98;;;;;;;-4.05;82.89;95577.28;4991472;28;20082;-76
2022/03/06 00:42:09;;;;;;;25.95;10.02;;;;;;;-4.05;83.16;95582.41;4985603;28;20126;-76
2022/03/06 00:44:36;;;;;;;24.70;10.55;;;;;;;-4.13;83.54;95590.19;4991046;28;20038;-76
2022/03/06 00:47:03;;;;;;;21.13;9.75;;;;;;;-4.06;83.80;95585.94;4991004;28;20065;-76
2022/03/06 00:49:29;;;;;;;21.80;10.00;;;;;;;-3.92;83.22;95580.97;4982434;28;20046;-76
2022/03/06 00:51:54;;;;;;;28.13;10.25;;;;;;;-3.95;82.36;95576.19;4982411;28;20034;-75
2022/03/06 00:54:20;;;;;;;29.00;10.85;;;;;;;-4.08;83.81;95577.63;4980416;28;20066;-76
2022/03/06 00:56:46;;;;;;;24.02;10.55;;;;;;;-4.24;84.60;95582.91;4986326;28;20043;-76
2022/03/06 00:59:12;;;;;;;23.50;9.48;;;;;;;-4.28;84.60;95574.75;4986274;28;20472;-75
2022/03/06 01:01:38;;;;;;;26.77;11.27;;;;;;;-4.23;84.98;95579.38;4981120;28;20054;-76
2022/03/06 01:04:04;;;;;;;28.20;11.25;;;;;;;-4.25;84.77;95565.88;4977010;28;20094;-76
2022/03/06 01:06:30;;;;;;;31.98;11.60;;;;;;;-4.25;84.89;95571.03;4977573;28;20042;-76
2022/03/06 01:08:56;;;;;;;25.67;9.93;;;;;;;-4.32;85.39;95568.38;4990726;28;20054;-76
2022/03/06 01:11:22;;;;;;;27.40;10.68;;;;;;;-4.32;85.50;95572.69;4987857;28;20049;-75
2022/03/06 01:13:48;;;;;;;27.73;11.07;;;;;;;-4.38;85.55;95569.88;4975035;28;20050;-76
2022/03/06 01:16:14;;;;;;;25.90;10.32;;;;;;;-4.42;86.10;95581.44;4982176;28;20038;-76
2022/03/06 01:18:39;;;;;;;27.55;10.82;;;;;;;-4.51;86.73;95577.38;4975479;28;20066;-76
2022/03/06 01:21:05;;;;;;;26.92;11.27;;;;;;;-4.39;85.58;95580.31;4979920;28;20504;-76
2022/03/06 01:23:31;;;;;;;26.35;10.95;;;;;;;-4.33;86.24;95578.81;4987362;28;20129;-76
2022/03/06 01:25:56;;;;;;;25.80;10.70;;;;;;;-4.46;86.11;95575.06;4976034;28;20500;-76
2022/03/06 01:28:22;;;;;;;24.80;10.88;;;;;;;-4.40;85.67;95579.50;4985664;28;20047;-76
2022/03/06 01:30:47;;;;;;;28.52;10.88;;;;;;;-4.44;86.78;95575.69;4990171;28;20574;-76
2022/03/06 01:33:13;;;;;;;26.13;11.15;;;;;;;-4.44;86.21;95573.13;4983736;28;20046;-76
2022/03/06 01:35:39;;;;;;;26.33;11.70;;;;;;;-4.30;85.46;95568.19;4976884;28;20042;-76
2022/03/06 01:38:05;;;;;;;26.48;10.98;;;;;;;-4.48;86.65;95582.16;4986927;28;20043;-76
2022/03/06 01:40:30;;;;;;;26.30;9.98;;;;;;;-4.38;86.35;95577.56;4970584;28;20058;-76
2022/03/06 01:42:57;;;;;;;25.88;11.07;;;;;;;-4.49;86.53;95575.41;4979399;28;20042;-75
2022/03/06 01:45:23;;;;;;;24.58;10.52;;;;;;;-4.55;87.44;95578.69;4978336;28;20501;-76
2022/03/06 01:47:52;;;;;;;27.55;10.55;;;;;;;-4.50;86.96;95571.25;4970510;28;20042;-76
2022/03/06 01:50:24;;;;;;;24.83;10.50;;;;;;;-4.50;86.94;95573.81;4989218;28;20046;-76
2022/03/06 01:52:51;;;;;;;27.08;10.57;;;;;;;-4.48;87.32;95579.59;4989636;28;20053;-75
2022/03/06 01:55:19;;;;;;;22.25;10.48;;;;;;;-4.43;86.03;95579.84;4984418;28;20519;-75
2022/03/06 01:57:46;;;;;;;22.27;10.20;;;;;;;-4.62;87.48;95570.06;4977503;28;20042;-74
2022/03/06 02:00:16;;;;;;;25.60;10.60;;;;;;;-4.78;89.00;95581.25;4981848;28;20050;-74
2022/03/06 02:02:42;;;;;;;29.63;11.00;;;;;;;-4.85;89.16;95583.72;4983362;28;20390;-74
2022/03/06 02:05:09;;;;;;;28.38;11.52;;;;;;;-4.81;89.62;95576.44;4978529;28;20042;-75
2022/03/06 02:07:35;;;;;;;25.02;10.98;;;;;;;-4.75;88.64;95570.66;4988753;28;20049;-75
2022/03/06 02:10:01;;;;;;;22.92;10.23;;;;;;;-4.67;88.38;95564.63;4988639;28;20050;-75
2022/03/06 02:12:27;;;;;;;25.75;10.80;;;;;;;-4.62;87.98;95572.63;4985339;28;20563;-75
2022/03/06 02:14:58;;;;;;;25.75;10.70;;;;;;;-4.52;86.98;95575.75;4989131;28;20046;-74
2022/03/06 02:17:25;;;;;;;23.92;10.18;;;;;;;-4.53;87.21;95571.59;4988135;28;20582;-75
2022/03/06 02:20:04;;;;;;;26.92;11.43;;;;;;;-4.47;87.00;95568.31;4988685;28;20042;-75
2022/03/06 02:22:32;;;;;;;25.75;10.90;;;;;;;-4.31;86.11;95571.72;4986315;28;20043;-74
2022/03/06 02:24:59;;;;;;;25.60;10.15;;;;;;;-4.31;85.45;95562.25;4976384;28;20039;-74
2022/03/06 02:27:25;;;;;;;24.02;10.68;;;;;;;-4.28;84.85;95566.22;4980506;28;20035;-75
2022/03/06 02:29:51;;;;;;;28.20;10.60;;;;;;;-4.31;85.88;95561.44;4989126;28;20045;-74
2022/03/06 02:32:20;;;;;;;25.65;11.15;;;;;;;-4.40;86.03;95564.09;4989173;28;20046;-74
2022/03/06 02:34:48;;;;;;;24.33;10.70;;;;;;;-4.31;85.31;95561.44;4985232;28;20038;-75
2022/03/06 02:37:19;;;;;;;26.60;10.90;;;;;;;-4.60;86.97;95561.19;4988536;28;20042;-74
2022/03/06 02:39:46;;;;;;;25.73;11.52;;;;;;;-4.68;87.50;95565.59;4988769;28;20109;-74
2022/03/06 02:42:25;;;;;;;23.83;10.70;;;;;;;-4.81;87.77;95561.84;4977487;28;20074;-75
2022/03/06 02:44:51;;;;;;;25.33;11.25;;;;;;;-4.80;88.01;95568.56;4988420;28;20049;-75
2022/03/06 02:47:16;;;;;;;24.55;10.13;;;;;;;-4.80;87.93;95573.72;4988972;28;20121;-74
2022/03/06 02:49:42;;;;;;;28.38;11.77;;;;;;;-4.99;90.18;95564.69;4986544;28;20042;-74
2022/03/06 02:52:09;;;;;;;26.95;10.85;;;;;;;-4.81;88.83;95567.00;4988301;28;20408;-74
2022/03/06 02:54:36;;;;;;;26.00;11.55;;;;;;;-4.63;86.87;95564.13;4984698;28;20416;-74
2022/03/06 02:57:06;;;;;;;28.55;10.82;;;;;;;-4.62;87.08;95564.94;4986085;28;20050;-74
2022/03/06 02:59:32;;;;;;;26.08;10.85;;;;;;;-4.61;87.05;95561.38;4988784;28;20467;-74
2022/03/06 03:01:57;;;;;;;26.60;12.00;;;;;;;-4.67;87.52;95572.34;4989176;28;20046;-74
2022/03/06 03:04:23;;;;;;;31.73;12.13;;;;;;;-4.66;87.66;95572.16;4987303;28;20034;-74
2022/03/06 03:06:50;;;;;;;26.42;11.05;;;;;;;-4.72;87.45;95576.22;4988361;28;20456;-74
2022/03/06 03:09:21;;;;;;;27.02;11.00;;;;;;;-4.65;86.68;95580.69;4989431;28;20077;-74
2022/03/06 03:11:48;;;;;;;25.63;10.63;;;;;;;-4.79;87.75;95579.66;4988408;28;20523;-74
2022/03/06 03:14:15;;;;;;;28.58;11.13;;;;;;;-4.80;87.38;95578.84;4980905;28;20050;-74
2022/03/06 03:16:41;;;;;;;25.92;11.35;;;;;;;-4.84;88.23;95587.88;4989481;28;20042;-74
2022/03/06 03:19:07;;;;;;;26.08;10.52;;;;;;;-4.85;88.62;95585.47;4992175;28;20049;-74
2022/03/06 03:21:33;;;;;;;26.73;10.65;;;;;;;-4.87;88.79;95593.34;4982553;28;20465;-74
2022/03/06 03:23:58;;;;;;;29.70;12.25;;;;;;;-4.93;89.15;95583.75;4991715;28;20042;-74
2022/03/06 03:26:24;;;;;;;27.23;11.50;;;;;;;-5.11;90.66;95582.25;4987359;28;20100;-74
2022/03/06 03:28:50;;;;;;;32.70;11.02;;;;;;;-5.07;90.53;95583.53;4991543;28;20066;-74
2022/03/06 03:31:16;;;;;;;28.80;12.30;;;;;;;-4.95;89.27;95585.69;4988991;28;20043;-74
2022/03/06 03:33:42;;;;;;;27.45;11.75;;;;;;;-4.93;89.44;95583.75;4977450;28;20054;-74
2022/03/06 03:36:08;;;;;;;28.30;10.90;;;;;;;-4.85;88.94;95588.84;4990869;28;20053;-73
2022/03/06 03:38:33;;;;;;;24.80;11.25;;;;;;;-4.88;89.26;95587.41;4992219;28;20100;-74
2022/03/06 03:41:01;;;;;;;28.67;11.30;;;;;;;-4.95;90.41;95595.97;4992309;28;20471;-74
2022/03/06 03:43:27;;;;;;;22.85;10.13;;;;;;;-4.95;89.86;95595.97;4988569;28;20050;-74
2022/03/06 03:45:53;;;;;;;27.38;11.60;;;;;;;-5.01;90.02;95602.56;4991175;28;20492;-73
2022/03/06 03:48:18;;;;;;;28.30;11.43;;;;;;;-4.96;89.76;95604.63;4991626;28;20049;-74
2022/03/06 03:50:44;;;;;;;30.58;12.40;;;;;;;-4.94;90.17;95612.94;4986635;28;20043;-74
2022/03/06 03:53:10;;;;;;;34.55;12.40;;;;;;;-5.01;90.79;95609.47;4991520;28;20109;-74
2022/03/06 03:55:36;;;;;;;25.92;11.50;;;;;;;-4.92;90.44;95606.69;4989395;28;20068;-74
2022/03/06 03:58:02;;;;;;;28.98;12.43;;;;;;;-4.94;90.71;95607.81;4991768;28;20046;-74
2022/03/06 04:00:28;;;;;;;29.17;11.68;;;;;;;-4.95;90.48;95606.25;4990780;28;20265;-74
2022/03/06 04:02:53;;;;;;;28.85;11.55;;;;;;;-4.92;90.76;95611.03;4990918;28;20038;-74
2022/03/06 04:05:19;;;;;;;27.48;11.85;;;;;;;-4.84;90.72;95618.69;4986255;28;20070;-74
2022/03/06 04:07:44;;;;;;;25.00;11.35;;;;;;;-5.06;92.33;95615.94;4991562;28;20562;-73
2022/03/06 04:10:11;;;;;;;30.67;11.50;;;;;;;-4.96;92.28;95615.69;4991514;28;20085;-74
2022/03/06 04:12:36;;;;;;;29.13;12.18;;;;;;;-4.91;92.18;95622.91;4988368;28;20046;-73
2022/03/06 04:15:02;;;;;;;29.73;12.02;;;;;;;-4.87;92.07;95614.69;4990795;28;20077;-74
2022/03/06 04:17:28;;;;;;;31.77;12.05;;;;;;;-4.94;93.48;95623.22;4991921;28;20495;-74
2022/03/06 04:19:54;;;;;;;26.83;12.15;;;;;;;-4.97;92.55;95621.00;4987863;28;20045;-74
2022/03/06 04:22:19;;;;;;;29.15;12.10;;;;;;;-4.99;93.43;95625.50;4977988;28;20053;-74
2022/03/06 04:24:45;;;;;;;28.23;12.98;;;;;;;-4.96;93.40;95628.53;4987484;28;20258;-74
2022/03/06 04:27:10;;;;;;;28.33;12.60;;;;;;;-4.92;92.77;95626.44;4990742;28;20421;-74
2022/03/06 04:29:36;;;;;;;28.65;12.15;;;;;;;-4.93;93.10;95624.81;4991074;28;20053;-73
2022/03/06 04:32:03;;;;;;;32.78;12.80;;;;;;;-4.85;93.03;95629.91;4991451;28;20050;-73
2022/03/06 04:34:28;;;;;;;33.45;13.13;;;;;;;-4.70;92.81;95625.66;4984053;28;20604;-74
2022/03/06 04:36:54;;;;;;;28.63;11.88;;;;;;;-4.59;91.97;95624.44;4990288;28;20242;-74
2022/03/06 04:39:20;;;;;;;30.73;12.38;;;;;;;-4.49;91.38;95626.78;4990851;28;20043;-74
2022/03/06 04:41:45;;;;;;;27.08;11.80;;;;;;;-4.56;91.55;95625.88;4990727;28;20047;-73
2022/03/06 04:44:12;;;;;;;27.70;11.63;;;;;;;-4.64;92.66;95624.19;4987932;28;20722;-74
2022/03/06 04:46:38;;;;;;;24.98;11.82;;;;;;;-4.58;92.02;95622.69;4990691;28;20042;-74
2022/03/06 04:49:04;;;;;;;32.70;12.55;;;;;;;-4.75;92.20;95622.78;4990331;28;20404;-73
2022/03/06 04:51:29;;;;;;;29.23;12.65;;;;;;;-4.79;92.95;95626.66;4979589;28;20500;-73
2022/03/06 04:53:55;;;;;;;29.45;12.80;;;;;;;-4.85;93.37;95632.47;4984238;28;20114;-73
2022/03/06 04:56:20;;;;;;;27.70;11.88;;;;;;;-4.78;92.74;95627.47;4986928;28;20498;-73
2022/03/06 04:58:46;;;;;;;30.13;12.35;;;;;;;-4.86;93.18;95636.00;4990054;28;20428;-73
2022/03/06 05:01:11;;;;;;;27.20;11.60;;;;;;;-4.91;94.16;95633.16;4988076;28;20053;-73
2022/03/06 05:03:37;;;;;;;27.33;12.57;;;;;;;-4.99;94.14;95630.63;4980356;28;20045;-74
2022/03/06 05:06:03;;;;;;;30.60;11.65;;;;;;;-5.04;94.23;95633.72;4990281;28;20042;-74
2022/03/06 05:08:29;;;;;;;28.77;12.13;;;;;;;-4.99;94.56;95630.63;4989165;28;20420;-73
2022/03/06 05:10:55;;;;;;;30.75;12.65;;;;;;;-4.94;94.29;95633.47;4979535;28;20047;-73
2022/03/06 05:13:24;;;;;;;36.70;13.00;;;;;;;-4.97;94.64;95629.50;4977992;28;20046;-74
2022/03/06 05:15:51;;;;;;;29.90;12.10;;;;;;;-4.99;94.50;95633.22;4990242;28;20042;-74
2022/03/06 05:18:16;;;;;;;29.23;12.32;;;;;;;-4.94;93.99;95633.47;4984867;28;20051;-74
2022/03/06 05:20:42;;;;;;;30.27;13.15;;;;;;;-4.90;94.50;95629.63;4985472;28;20046;-73
2022/03/06 05:23:08;;;;;;;26.35;11.70;;;;;;;-4.84;94.04;95634.09;4989859;28;20119;-73
2022/03/06 05:25:33;;;;;;;29.65;11.82;;;;;;;-4.72;93.00;95637.84;4988811;28;20053;-73
2022/03/06 05:27:59;;;;;;;30.00;12.75;;;;;;;-4.82;92.84;95639.06;4989911;28;20042;-73
2022/03/06 05:30:24;;;;;;;31.13;12.30;;;;;;;-4.83;92.57;95640.81;4990284;28;20046;-73
2022/03/06 08:08:43;;;;;;;27.63;11.02;;;;;;;-3.22;85.93;95694.72;5062624;27;20384;-71
2022/03/06 08:11:09;;;;;;;28.63;10.90;;;;;;;-3.22;84.99;95705.03;5060768;28;20040;-69
2022/03/06 08:13:34;;;;;;;27.83;11.57;;;;;;;-3.14;84.50;95704.94;5056396;28;20048;-70
2022/03/06 08:16:00;;;;;;;26.90;12.02;;;;;;;-3.04;84.40;95708.03;5058294;28;20490;-71
2022/03/06 08:18:25;;;;;;;28.60;11.65;;;;;;;-2.94;83.60;95704.38;5060273;28;20053;-70
2022/03/06 08:20:51;;;;;;;26.50;10.98;;;;;;;-2.72;83.27;95711.19;5058320;28;20052;-75
2022/03/06 08:23:16;;;;;;;27.90;11.32;;;;;;;-2.72;82.54;95700.09;5063707;28;20044;-72
2022/03/06 08:25:42;;;;;;;29.98;12.65;;;;;;;-2.75;83.12;95706.41;5059359;28;20037;-71
2022/03/06 08:28:07;;;;;;;29.00;11.65;;;;;;;-2.75;83.07;95701.25;5064627;28;20044;-71
2022/03/06 08:30:33;;;;;;;28.63;11.98;;;;;;;-2.66;82.55;95705.34;5062763;28;20413;-71
2022/03/06 08:32:58;;;;;;;27.23;10.85;;;;;;;-2.46;81.60;95704.72;5057281;28;20474;-71
2022/03/06 08:35:24;;;;;;;24.60;11.38;;;;;;;-2.32;80.37;95706.47;5065781;28;20048;-71
2022/03/06 08:37:50;;;;;;;31.42;12.60;;;;;;;-2.40;80.88;95704.00;5058637;28;20033;-71
2022/03/06 08:40:16;;;;;;;31.15;11.95;;;;;;;-2.48;80.48;95701.56;5065066;28;20498;-71
2022/03/06 08:42:41;;;;;;;26.63;11.38;;;;;;;-2.39;80.06;95703.03;5076320;28;20040;-71
2022/03/06 08:45:08;;;;;;;30.08;11.45;;;;;;;-2.37;79.61;95706.22;5068703;28;20041;-71
2022/03/06 08:47:33;;;;;;;27.35;11.38;;;;;;;-1.96;78.69;95705.59;5059978;28;20124;-71
2022/03/06 08:49:59;;;;;;;26.00;12.10;;;;;;;-2.12;77.71;95701.50;5065359;28;20072;-71
2022/03/06 08:52:24;;;;;;;29.30;11.90;;;;;;;-2.09;77.84;95713.22;5056692;28;20038;-72
2022/03/06 08:54:50;;;;;;;27.38;12.02;;;;;;;-1.99;77.19;95705.97;5051848;28;20052;-73
2022/03/06 08:57:15;;;;;;;24.27;9.68;;;;;;;-1.82;77.22;95705.72;5064216;28;20048;-73
2022/03/06 08:59:41;;;;;;;29.92;12.48;;;;;;;-1.59;76.71;95711.44;5064401;28;20044;-74
2022/03/06 09:02:07;;;;;;;34.63;14.18;;;;;;;-1.62;74.78;95701.50;5060691;28;20037;-72
2022/03/06 09:04:33;;;;;;;27.77;10.98;;;;;;;-1.64;73.68;95698.31;5053754;28;20048;-72
2022/03/06 09:06:59;;;;;;;26.08;10.55;;;;;;;-1.39;74.00;95700.47;5058370;28;20501;-71
2022/03/06 09:09:25;;;;;;;24.88;11.05;;;;;;;-1.10;72.06;95688.31;5061232;28;20068;-72
2022/03/06 09:11:50;;;;;;;28.08;10.55;;;;;;;-1.25;71.50;95696.97;5064101;28;20418;-72
2022/03/06 09:14:16;;;;;;;28.17;10.68;;;;;;;-0.99;70.75;95690.34;5059227;28;20056;-72
2022/03/06 09:16:41;;;;;;;26.38;11.18;;;;;;;-1.09;70.36;95689.91;5066313;28;20041;-72
2022/03/06 09:19:07;;;;;;;25.25;10.77;;;;;;;-0.94;69.55;95695.72;5051229;28;20108;-72
2022/03/06 09:21:32;;;;;;;22.42;10.65;;;;;;;-0.49;68.56;95684.16;5048463;28;20098;-73
2022/03/06 09:23:59;;;;;;;22.92;10.90;;;;;;;-0.54;68.32;95688.13;5041730;28;20041;-72
2022/03/06 09:26:25;;;;;;;22.50;10.20;;;;;;;-0.37;66.59;95682.59;5048180;28;20033;-72
2022/03/06 09:28:50;;;;;;;26.90;11.00;;;;;;;-0.45;65.93;95685.38;5040431;28;20114;-72
2022/03/06 09:31:16;;;;;;;22.35;10.02;;;;;;;-0.04;64.14;95681.88;5051793;28;20064;-71
2022/03/06 09:33:42;;;;;;;21.48;9.68;;;;;;;0.27;60.81;95688.22;5046864;28;20458;-70
2022/03/06 09:36:07;;;;;;;23.75;10.18;;;;;;;0.15;60.19;95691.41;5044496;28;20041;-72
2022/03/06 09:38:33;;;;;;;20.60;8.80;;;;;;;0.12;60.74;95691.81;5055690;28;20145;-71
2022/03/06 09:41:03;;;;;;;24.60;9.65;;;;;;;-0.09;58.98;95682.44;5054684;28;20033;-70
2022/03/06 09:43:30;;;;;;;21.27;9.20;;;;;;;-0.18;58.75;95687.00;5048344;28;20489;-71
2022/03/06 09:46:04;;;;;;;19.20;9.38;;;;;;;0.06;58.54;95677.09;5045365;28;20053;-71
2022/03/06 09:48:30;;;;;;;;;;;;;;;0.30;58.90;95687.81;5054878;28;20044;-72
2022/03/06 09:50:57;;;;;;;20.10;8.48;;;;;;;0.68;57.72;95689.78;5059222;28;19933;-72
2022/03/06 09:53:23;;;;;;;22.40;9.43;;;;;;;0.38;56.47;95690.22;5051865;28;20041;-71
2022/03/06 09:55:49;;;;;;;22.85;9.20;;;;;;;0.37;55.66;95688.63;5047850;28;20048;-72
2022/03/06 09:58:15;;;;;;;20.05;8.80;;;;;;;0.56;55.97;95686.22;5057856;28;20098;-73
2022/03/06 10:00:41;;;;;;;19.20;8.40;;;;;;;0.65;54.22;95690.19;5050218;28;20041;-70
2022/03/06 10:03:07;;;;;;;16.95;9.13;;;;;;;0.49;53.91;95687.03;5047924;28;20048;-70
2022/03/06 10:05:38;;;;;;;19.98;8.57;;;;;;;0.77;53.39;95693.75;5049890;28;20056;-68
2022/03/06 10:08:26;;;;;;;17.23;7.65;;;;;;;1.24;51.90;95692.81;5064430;28;20062;-69
2022/03/06 10:11:01;;;;;;;17.80;7.88;;;;;;;1.55;52.55;95698.06;5060058;28;20040;-69
2022/03/06 10:13:40;;;;;;;17.80;7.97;;;;;;;1.73;50.86;95691.38;5050003;28;20041;-69
2022/03/06 10:16:16;;;;;;;14.75;6.85;;;;;;;2.21;50.09;95693.47;5031782;28;20050;-69
2022/03/06 10:18:43;;;;;;;21.30;9.13;;;;;;;3.05;48.59;95692.28;5032249;28;20135;-69
2022/03/06 10:21:09;;;;;;;17.08;7.72;;;;;;;4.05;44.70;95679.78;5044059;28;20037;-70
2022/03/06 10:23:35;;;;;;;19.73;8.48;;;;;;;3.43;44.44;95689.44;5048681;28;20056;-68
2022/03/06 10:26:17;;;;;;;17.25;7.38;;;;;;;4.41;42.42;95681.44;5048802;28;20494;-69
2022/03/06 10:28:50;;;;;;;16.75;8.32;;;;;;;4.95;42.66;95677.91;5049494;28;20045;-68
2022/03/06 10:31:18;;;;;;;15.90;8.55;;;;;;;5.97;40.76;95673.84;5042052;28;20041;-68
2022/03/06 10:34:01;;;;;;;16.00;8.07;;;;;;;6.00;40.74;95677.81;5050597;28;20491;-68
2022/03/06 10:36:35;;;;;;;17.13;8.70;;;;;;;6.49;38.58;95669.44;5040883;28;20037;-68
2022/03/06 10:39:07;;;;;;;16.38;8.68;;;;;;;5.81;39.36;95675.38;5070553;28;20486;-69
2022/03/06 10:41:38;;;;;;;18.42;9.02;;;;;;;6.16;38.44;95681.47;5047468;28;20503;-68
2022/03/06 10:44:06;;;;;;;17.10;8.80;;;;;;;5.76;40.41;95677.09;5046051;28;20038;-68
2022/03/06 10:46:34;;;;;;;18.88;9.52;;;;;;;6.04;39.84;95674.47;5046298;28;20053;-68
2022/03/06 10:49:13;;;;;;;18.45;10.20;;;;;;;5.96;39.65;95672.25;5057679;28;20071;-68
2022/03/06 10:51:44;;;;;;;21.98;9.43;;;;;;;7.38;36.91;95671.09;5048889;28;20120;-69
2022/03/06 10:54:10;;;;;;;18.63;9.90;;;;;;;6.79;37.58;95671.69;5033706;28;20045;-69
2022/03/06 10:56:36;;;;;;;18.58;9.20;;;;;;;6.54;38.28;95672.13;5045860;28;20045;-69
2022/03/06 10:59:05;;;;;;;19.02;10.10;;;;;;;6.29;38.27;95681.13;5070205;28;20056;-69
2022/03/06 11:01:31;;;;;;;23.50;11.07;;;;;;;4.95;41.44;95683.91;5066682;28;20123;-69
2022/03/06 11:03:58;;;;;;;20.05;9.73;;;;;;;6.78;39.39;95671.94;5049012;28;20047;-68
2022/03/06 11:06:26;;;;;;;19.42;10.68;;;;;;;5.51;39.16;95671.19;5030339;28;20042;-69
2022/03/06 11:08:53;;;;;;;19.83;10.77;;;;;;;7.10;37.43;95670.25;5056584;28;20048;-69
2022/03/06 11:11:20;;;;;;;19.27;10.32;;;;;;;7.22;37.50;95666.72;5042283;28;20038;-70
2022/03/06 11:13:46;;;;;;;20.85;10.00;;;;;;;7.92;36.52;95664.34;5062605;28;20045;-71
2022/03/06 11:16:11;;;;;;;25.02;10.27;;;;;;;7.15;35.92;95666.13;5049235;28;20037;-70
2022/03/06 11:18:38;;;;;;;19.38;9.73;;;;;;;7.60;34.93;95651.94;5050548;28;20048;-70
2022/03/06 11:21:04;;;;;;;19.40;10.38;;;;;;;5.94;38.06;95657.81;5052780;28;20517;-69
2022/03/06 11:23:44;;;;;;;19.42;9.68;;;;;;;5.20;37.95;95654.13;5046182;28;20107;-70
2022/03/06 11:26:09;;;;;;;21.60;9.80;;;;;;;5.40;37.78;95658.16;5043218;28;20037;-72
2022/03/06 11:28:43;;;;;;;18.90;10.32;;;;;;;5.95;38.70;95657.59;5055464;28;20076;-71
2022/03/06 11:31:10;;;;;;;19.95;9.68;;;;;;;5.30;38.76;95659.56;5050017;28;20103;-70
2022/03/06 11:33:41;;;;;;;22.00;10.05;;;;;;;6.26;37.21;95652.09;5045881;28;20457;-69
2022/03/06 11:36:21;;;;;;;16.65;9.05;;;;;;;3.85;40.99;95649.66;5048687;28;20624;-70
2022/03/06 11:38:49;;;;;;;18.23;9.38;;;;;;;6.18;37.04;95655.91;5049532;28;20039;-71
2022/03/06 11:41:15;;;;;;;20.73;10.00;;;;;;;6.50;36.81;95660.56;5048453;28;20504;-70
2022/03/06 11:43:44;;;;;;;18.17;8.85;;;;;;;6.43;37.65;95654.69;5048790;28;20128;-70
2022/03/06 11:46:16;;;;;;;20.90;10.07;;;;;;;6.40;35.88;95646.28;5049305;28;20033;-69
2022/03/06 11:48:44;;;;;;;18.42;9.48;;;;;;;6.34;36.05;95652.47;5036230;28;20049;-70
2022/03/06 11:51:12;;;;;;;16.33;8.95;;;;;;;7.15;35.66;95639.94;5043251;28;20553;-69
2022/03/06 11:53:52;;;;;;;17.55;8.85;;;;;;;8.81;33.35;95639.31;5045540;28;20110;-70
2022/03/06 11:56:32;;;;;;;16.15;9.48;;;;;;;9.30;32.15;95634.78;5043773;28;20755;-71
2022/03/06 11:59:10;;;;;;;22.73;10.18;;;;;;;8.34;33.87;95619.03;5036505;28;20413;-70
2022/03/06 12:01:40;;;;;;;16.90;9.68;;;;;;;7.62;34.97;95628.94;5042961;28;20048;-70
2022/03/06 12:04:10;;;;;;;17.27;10.00;;;;;;;7.42;36.28;95630.31;5043836;28;20114;-70
2022/03/06 12:06:45;;;;;;;16.85;9.35;;;;;;;7.46;34.89;95626.16;5049289;28;20063;-70
2022/03/06 12:09:23;;;;;;;16.38;9.60;;;;;;;6.01;36.12;95624.53;5046195;28;20052;-73
2022/03/06 12:11:51;;;;;;;17.73;9.93;;;;;;;6.49;35.45;95619.75;5044355;28;20406;-75
2022/03/06 12:14:20;;;;;;;18.17;9.63;;;;;;;7.78;34.41;95614.94;5041650;28;20033;-70
2022/03/06 12:17:00;;;;;;;15.02;8.60;;;;;;;7.77;34.33;95610.75;5048947;28;20864;-69
2022/03/06 12:19:30;;;;;;;17.10;9.27;;;;;;;9.12;32.89;95612.41;5054021;28;20048;-71
2022/03/06 12:22:12;;;;;;;15.98;9.75;;;;;;;8.74;32.74;95612.50;5041883;28;20057;-70
2022/03/06 12:24:40;;;;;;;17.35;9.60;;;;;;;6.60;37.04;95616.25;5032742;28;20041;-68
2022/03/06 12:27:14;;;;;;;17.40;9.75;;;;;;;7.11;36.04;95608.22;5049050;28;20550;-68
2022/03/06 12:29:46;;;;;;;15.77;9.02;;;;;;;7.41;34.67;95605.19;5045440;28;20463;-69
2022/03/06 12:32:31;;;;;;;17.63;8.93;;;;;;;8.14;34.40;95609.22;5045404;28;20536;-68
2022/03/06 12:35:06;;;;;;;14.88;8.65;;;;;;;7.19;35.19;95601.78;5036975;28;20045;-69
2022/03/06 12:37:40;;;;;;;17.48;9.68;;;;;;;7.56;34.91;95608.97;5043803;28;20044;-69
2022/03/06 12:40:15;;;;;;;16.10;8.43;;;;;;;7.79;34.00;95603.44;5047933;28;20495;-68
2022/03/06 12:42:42;;;;;;;14.98;8.45;;;;;;;9.07;34.10;95604.53;5046944;28;20289;-69
2022/03/06 12:45:13;;;;;;;17.45;9.18;;;;;;;8.06;33.23;95607.84;5051334;28;20040;-69
2022/03/06 12:47:41;;;;;;;15.60;9.18;;;;;;;8.76;33.69;95599.13;5045653;28;20042;-69
2022/03/06 12:50:09;;;;;;;14.88;8.60;;;;;;;9.16;31.32;95593.25;5039173;28;20510;-69
2022/03/06 12:52:35;;;;;;;16.95;9.38;;;;;;;7.93;33.43;95597.75;5045630;28;20556;-69
2022/03/06 12:55:05;;;;;;;16.85;9.20;;;;;;;7.52;34.43;95603.44;5046772;28;20044;-68
2022/03/06 12:57:54;;;;;;;16.50;9.20;;;;;;;8.54;33.64;95596.66;5056295;28;20037;-68
2022/03/06 13:00:25;;;;;;;15.05;8.68;;;;;;;9.64;31.31;95589.66;5044737;28;20029;-69
2022/03/06 13:02:53;;;;;;;15.52;8.38;;;;;;;7.07;35.25;95597.47;5048815;28;20253;-70
2022/03/06 13:05:25;;;;;;;14.45;8.75;;;;;;;7.90;33.98;95593.03;5053236;28;20660;-69
2022/03/06 13:07:52;;;;;;;17.05;8.82;;;;;;;7.93;32.85;95598.56;5056162;28;20048;-69
2022/03/06 13:10:19;;;;;;;15.07;8.55;;;;;;;6.80;34.82;95594.81;5059991;28;20098;-69
2022/03/06 13:12:47;;;;;;;14.75;8.32;;;;;;;7.30;35.33;95585.16;5054822;28;20064;-70
2022/03/06 13:15:12;;;;;;;15.43;8.45;;;;;;;8.30;34.28;95597.00;5055777;28;20033;-69
2022/03/06 13:17:43;;;;;;;16.25;8.82;;;;;;;8.00;33.12;95579.22;5062454;28;20451;-70
2022/03/06 13:20:10;;;;;;;16.85;8.98;;;;;;;7.08;34.49;95583.38;5057403;28;20045;-69
2022/03/06 13:22:35;;;;;;;14.80;8.50;;;;;;;6.73;36.61;95587.13;5054403;28;20054;-69
2022/03/06 13:25:03;;;;;;;15.90;8.98;;;;;;;7.71;33.55;95579.50;5050650;28;20496;-71
2022/03/06 13:27:32;;;;;;;15.05;8.25;;;;;;;5.77;36.32;95589.91;5032335;28;20507;-69
2022/03/06 13:30:18;;;;;;;16.77;8.88;;;;;;;4.95;38.74;95584.81;5048439;28;20094;-69
2022/03/06 13:32:48;;;;;;;16.58;8.80;;;;;;;4.42;39.82;95597.03;5056765;28;20095;-69
2022/03/06 13:35:34;;;;;;;14.63;8.88;;;;;;;4.69;39.93;95581.69;5050241;28;20037;-68
2022/03/06 13:38:02;;;;;;;15.20;8.52;;;;;;;5.09;38.90;95584.56;5050878;28;20089;-69
2022/03/06 13:40:30;;;;;;;14.82;8.65;;;;;;;4.53;39.82;95586.84;5054325;28;20553;-69
2022/03/06 13:42:57;;;;;;;14.55;8.57;;;;;;;4.88;39.38;95584.13;5051140;28;20052;-70
2022/03/06 13:45:23;;;;;;;20.98;9.43;;;;;;;4.31;39.57;95580.38;5055674;28;20141;-69
2022/03/06 13:47:51;;;;;;;14.02;8.07;;;;;;;5.13;38.50;95585.66;5069002;28;20032;-69
2022/03/06 13:50:22;;;;;;;14.38;7.80;;;;;;;4.35;39.06;95598.94;5054193;28;20040;-68
2022/03/06 13:52:49;;;;;;;15.55;8.88;;;;;;;4.17;40.01;95594.66;5047170;28;20541;-69
2022/03/06 13:55:15;;;;;;;15.20;7.93;;;;;;;3.71;41.32;95596.97;5036214;28;20052;-70
2022/03/06 13:58:08;;;;;;;14.35;8.63;;;;;;;3.44;41.95;95597.34;5037894;28;20506;-70
2022/03/06 14:00:54;;;;;;;16.67;8.70;;;;;;;3.80;42.39;95600.06;5037366;28;20037;-69
2022/03/06 14:03:36;;;;;;;16.55;8.75;;;;;;;3.50;41.83;95598.28;5044774;28;20037;-69